createdAt,value
2023-04-07T00:01:43.401Z,-3275.60
2023-04-07T00:04:10.357Z,-3275.70
2023-04-07T00:06:37.207Z,-3275.70
2023-04-07T00:09:03.941Z,-3275.70
2023-04-07T00:11:30.920Z,-3275.70
2023-04-07T00:13:57.824Z,-3275.50
2023-04-07T00:16:24.617Z,-3275.40
2023-04-07T00:18:51.392Z,-3275.40
2023-04-07T00:21:18.202Z,-3275.40
2023-04-07T00:23:45.104Z,-3275.50
2023-04-07T00:26:11.925Z,-3275.50
2023-04-07T00:28:38.744Z,-3275.60
2023-04-07T00:31:05.914Z,-3275.60
2023-04-07T00:33:33.070Z,-3275.60
2023-04-07T00:36:00.109Z,-3275.60
2023-04-07T00:38:27.257Z,-3275.50
2023-04-07T00:40:59.320Z,-3275.50
2023-04-07T00:43:26.589Z,-3275.50
2023-04-07T00:45:54.287Z,-3275.40
2023-04-07T00:48:21.643Z,-3275.30
2023-04-07T00:50:48.485Z,-3275.30
2023-04-07T00:53:16.580Z,-3275.40
2023-04-07T00:55:43.749Z,-3275.40
2023-04-07T00:58:11.006Z,-3275.20
2023-04-07T01:00:55.314Z,-3275.20
2023-04-07T01:03:32.344Z,-3275.10
2023-04-07T01:06:02.316Z,-3275.20
2023-04-07T01:08:44.028Z,-3275.30
2023-04-07T01:11:17.516Z,-3275.30
2023-04-07T01:13:49.756Z,-3275.30
2023-04-07T01:16:32.926Z,-3275.20
2023-04-07T01:19:18.406Z,-3275.00
2023-04-07T01:21:48.865Z,-3274.80
2023-04-07T01:25:02.808Z,-3274.80
2023-04-07T01:27:43.598Z,-3274.90
2023-04-07T01:30:13.202Z,-3275.00
2023-04-07T01:32:47.514Z,-3275.10
2023-04-07T01:35:15.924Z,-3275.20
2023-04-07T01:37:43.408Z,-3275.20
2023-04-07T01:40:11.549Z,-3275.20
2023-04-07T01:42:39.763Z,-3275.20
2023-04-07T01:45:07.775Z,-3275.20
2023-04-07T01:47:37.618Z,-3275.10
2023-04-07T01:50:09.103Z,-3275.10
2023-04-07T01:52:36.912Z,-3275.10
2023-04-07T01:55:11.266Z,-3275.20
2023-04-07T01:57:38.862Z,-3275.20
2023-04-07T02:00:06.853Z,-3275.10
2023-04-07T02:02:41.426Z,-3275.00
2023-04-07T02:05:12.556Z,-3275.00
2023-04-07T02:07:46.924Z,-3275.00
2023-04-07T02:10:16.258Z,-3274.90
2023-04-07T02:12:46.289Z,-3274.90
2023-04-07T02:15:14.144Z,-3274.80
2023-04-07T02:17:44.628Z,-3274.80
2023-04-07T02:20:12.840Z,-3274.70
2023-04-07T02:22:39.890Z,-3274.60
2023-04-07T02:25:24.677Z,-3274.50
2023-04-07T02:27:52.248Z,-3274.30
2023-04-07T02:30:19.760Z,-3274.30
2023-04-07T02:32:46.572Z,-3274.20
2023-04-07T02:35:13.360Z,-3274.20
2023-04-07T02:37:40.311Z,-3274.30
2023-04-07T02:40:07.943Z,-3274.50
2023-04-07T02:42:34.834Z,-3274.50
2023-04-07T02:45:01.592Z,-3274.50
2023-04-07T02:47:28.866Z,-3274.50
2023-04-07T02:49:57.409Z,-3274.50
2023-04-07T02:52:24.150Z,-3274.50
2023-04-07T02:54:51.504Z,-3274.50
2023-04-07T02:57:18.600Z,-3274.50
2023-04-07T02:59:45.456Z,-3274.40
2023-04-07T03:02:12.434Z,-3274.40
2023-04-07T03:04:39.338Z,-3274.50
2023-04-07T03:07:06.116Z,-3274.50
2023-04-07T03:09:32.885Z,-3274.50
2023-04-07T03:11:59.780Z,-3274.40
2023-04-07T03:14:26.744Z,-3274.40
2023-04-07T03:16:53.531Z,-3274.20
2023-04-07T03:19:20.282Z,-3274.10
2023-04-07T03:21:47.210Z,-3274.00
2023-04-07T03:24:13.979Z,-3274.10
2023-04-07T03:26:41.254Z,-3274.10
2023-04-07T03:29:08.015Z,-3274.20
2023-04-07T03:31:34.803Z,-3274.20
2023-04-07T03:34:01.574Z,-3274.20
2023-04-07T03:36:28.594Z,-3274.20
2023-04-07T03:38:55.784Z,-3274.20
2023-04-07T03:41:22.529Z,-3274.20
2023-04-07T03:43:49.380Z,-3274.10
2023-04-07T03:46:16.287Z,-3274.10
2023-04-07T03:48:43.079Z,-3274.10
2023-04-07T03:51:09.841Z,-3274.00
2023-04-07T03:53:36.539Z,-3274.00
2023-04-07T03:56:03.602Z,-3274.00
2023-04-07T03:58:30.367Z,-3274.00
2023-04-07T04:00:57.241Z,-3274.10
2023-04-07T04:03:24.090Z,-3274.00
2023-04-07T04:05:51.207Z,-3274.00
2023-04-07T04:08:18.175Z,-3274.00
2023-04-07T04:10:45.016Z,-3274.10
2023-04-07T04:13:12.352Z,-3274.00
2023-04-07T04:15:39.470Z,-3273.90
2023-04-07T04:18:06.530Z,-3273.90
2023-04-07T04:20:33.684Z,-3273.90
2023-04-07T04:23:00.519Z,-3273.90
2023-04-07T04:25:27.310Z,-3273.80
2023-04-07T04:27:54.062Z,-3273.80
2023-04-07T04:30:21.106Z,-3273.80
2023-04-07T04:32:47.960Z,-3273.80
2023-04-07T04:35:14.805Z,-3273.80
2023-04-07T04:37:41.818Z,-3273.80
2023-04-07T04:40:09.396Z,-3273.70
2023-04-07T04:42:36.329Z,-3273.70
2023-04-07T04:45:03.305Z,-3273.80
2023-04-07T04:47:31.101Z,-3273.70
2023-04-07T04:49:58.016Z,-3273.70
2023-04-07T04:52:24.778Z,-3273.80
2023-04-07T04:54:51.598Z,-3273.70
2023-04-07T04:57:18.325Z,-3273.70
2023-04-07T04:59:45.696Z,-3273.70
2023-04-07T05:02:12.571Z,-3273.70
2023-04-07T05:04:39.520Z,-3273.60
2023-04-07T05:07:06.322Z,-3273.60
2023-04-07T05:09:33.560Z,-3273.60
2023-04-07T05:12:01.727Z,-3273.70
2023-04-07T05:14:28.828Z,-3273.80
2023-04-07T05:16:56.096Z,-3273.90
2023-04-07T05:19:22.901Z,-3274.00
2023-04-07T05:21:49.660Z,-3274.10
2023-04-07T05:24:16.501Z,-3274.20
2023-04-07T05:26:43.501Z,-3274.20
2023-04-07T05:29:10.411Z,-3274.30
2023-04-07T05:31:37.479Z,-3274.30
2023-04-07T05:34:04.349Z,-3274.30
2023-04-07T05:36:31.796Z,-3274.40
2023-04-07T05:38:59.252Z,-3274.50
2023-04-07T05:41:26.344Z,-3274.60
2023-04-07T05:43:53.634Z,-3274.70
2023-04-07T05:46:20.653Z,-3274.70
2023-04-07T05:48:47.486Z,-3274.80
2023-04-07T05:51:15.412Z,-3274.90
2023-04-07T05:53:42.400Z,-3275.20
2023-04-07T05:56:09.173Z,-3275.30
2023-04-07T05:58:35.929Z,-3275.30
2023-04-07T06:01:02.650Z,-3275.40
2023-04-07T06:03:30.035Z,-3275.50
2023-04-07T06:05:58.471Z,-3275.70
2023-04-07T06:08:25.373Z,-3275.80
2023-04-07T06:10:52.362Z,-3275.90
2023-04-07T06:13:19.119Z,-3276.00
2023-04-07T06:15:46.338Z,-3276.10
2023-04-07T06:18:13.098Z,-3276.20
2023-04-07T06:20:40.225Z,-3276.30
2023-04-07T06:23:07.138Z,-3276.30
2023-04-07T06:25:34.131Z,-3276.40
2023-04-07T06:28:01.237Z,-3276.50
2023-04-07T06:30:28.096Z,-3276.70
2023-04-07T06:32:54.989Z,-3276.60
2023-04-07T06:35:21.900Z,-3276.70
2023-04-07T06:37:49.175Z,0.00
2023-04-07T06:40:16.094Z,0.10
2023-04-07T06:42:43.335Z,0.10
2023-04-07T06:45:10.433Z,0.00
2023-04-07T06:47:38.272Z,0.30
2023-04-07T06:50:05.773Z,0.30
2023-04-07T06:52:32.523Z,0.40
2023-04-07T06:54:59.657Z,0.60
2023-04-07T06:57:27.555Z,0.70
2023-04-07T06:59:54.306Z,0.80
2023-04-07T07:02:21.232Z,0.80
2023-04-07T07:04:48.102Z,1.00
2023-04-07T07:07:15.377Z,1.10
2023-04-07T07:09:42.224Z,1.10
2023-04-07T07:12:10.196Z,1.30
2023-04-07T07:14:37.126Z,1.40
2023-04-07T07:17:04.273Z,1.50
2023-04-07T07:19:31.185Z,1.80
2023-04-07T07:21:58.101Z,1.90
2023-04-07T07:24:28.888Z,2.00
2023-04-07T07:26:57.130Z,2.30
2023-04-07T07:29:23.896Z,2.40
2023-04-07T07:31:51.109Z,2.50
2023-04-07T07:34:18.002Z,2.50
2023-04-07T07:36:45.310Z,2.80
2023-04-07T07:39:12.228Z,3.00
2023-04-07T07:41:38.946Z,3.20
2023-04-07T07:44:06.068Z,3.20
2023-04-07T07:46:32.927Z,3.30
2023-04-07T07:49:04.756Z,3.50
2023-04-07T07:51:31.679Z,3.70
2023-04-07T07:53:58.489Z,3.90
2023-04-07T07:56:25.456Z,4.00
2023-04-07T07:58:52.293Z,4.10
2023-04-07T08:01:19.138Z,4.20
2023-04-07T08:03:46.262Z,4.40
2023-04-07T08:06:13.149Z,4.60
2023-04-07T08:08:40.555Z,4.80
2023-04-07T08:11:07.971Z,5.00
2023-04-07T08:13:34.869Z,5.20
2023-04-07T08:16:01.961Z,5.30
2023-04-07T08:18:28.934Z,5.50
2023-04-07T08:20:57.480Z,5.80
2023-04-07T08:23:24.330Z,6.00
2023-04-07T08:25:51.137Z,6.10
2023-04-07T08:28:17.948Z,6.30
2023-04-07T08:30:44.681Z,6.50
2023-04-07T08:33:11.470Z,6.70
2023-04-07T08:35:38.206Z,6.90
2023-04-07T08:38:05.740Z,7.00
2023-04-07T08:40:33.623Z,7.00
2023-04-07T08:43:01.359Z,7.30
2023-04-07T08:45:29.442Z,7.30
2023-04-07T08:47:57.245Z,7.50
2023-04-07T08:50:27.275Z,7.60
2023-04-07T08:52:56.585Z,7.70
2023-04-07T08:55:24.044Z,7.80
2023-04-07T08:57:52.689Z,7.90
2023-04-07T09:00:20.075Z,8.00
2023-04-07T09:02:49.360Z,8.20
2023-04-07T09:05:16.408Z,8.30
2023-04-07T09:07:43.519Z,8.40
2023-04-07T09:10:11.040Z,8.60
2023-04-07T09:12:38.270Z,8.70
2023-04-07T09:15:08.662Z,8.90
2023-04-07T09:17:35.799Z,8.80
2023-04-07T09:20:04.481Z,8.80
2023-04-07T09:22:42.908Z,9.10
2023-04-07T09:25:13.582Z,9.30
2023-04-07T09:27:40.940Z,9.40
2023-04-07T09:30:12.813Z,9.50
2023-04-07T09:32:41.217Z,9.40
2023-04-07T09:35:08.388Z,9.40
2023-04-07T09:37:35.663Z,9.70
2023-04-07T09:40:02.607Z,9.70
2023-04-07T09:42:32.467Z,9.80
2023-04-07T09:45:03.096Z,9.80
2023-04-07T09:47:32.725Z,9.90
2023-04-07T09:49:59.818Z,10.10
2023-04-07T09:52:50.758Z,10.10
2023-04-07T09:55:21.626Z,10.10
2023-04-07T09:57:52.353Z,10.40
2023-04-07T10:00:19.508Z,10.60
2023-04-07T10:02:46.845Z,10.30
2023-04-07T10:05:13.744Z,10.40
2023-04-07T10:07:42.575Z,10.60
2023-04-07T10:10:10.360Z,10.60
2023-04-07T10:12:41.641Z,10.80
2023-04-07T10:15:09.985Z,10.90
2023-04-07T10:17:40.162Z,11.20
2023-04-07T10:20:09.931Z,11.30
2023-04-07T10:22:41.256Z,11.30
2023-04-07T10:25:11.689Z,11.40
2023-04-07T10:27:54.792Z,11.30
2023-04-07T10:30:26.230Z,11.50
2023-04-07T10:32:54.322Z,11.60
2023-04-07T10:35:22.339Z,11.70
2023-04-07T10:38:07.948Z,12.00
2023-04-07T10:40:35.606Z,12.30
2023-04-07T10:43:02.805Z,12.60
2023-04-07T10:45:59.675Z,12.80
2023-04-07T10:48:28.610Z,12.90
2023-04-07T10:51:08.363Z,13.10
2023-04-07T10:53:35.404Z,13.20
2023-04-07T10:56:02.758Z,12.80
2023-04-07T10:58:30.726Z,12.60
2023-04-07T11:01:00.896Z,12.60
2023-04-07T11:03:34.084Z,12.80
2023-04-07T11:06:04.568Z,12.90
2023-04-07T11:08:48.379Z,13.00
2023-04-07T11:11:34.412Z,13.20
2023-04-07T11:14:01.553Z,13.40
2023-04-07T11:16:37.201Z,13.40
2023-04-07T11:19:03.979Z,13.50
2023-04-07T11:21:31.603Z,13.80
2023-04-07T11:23:58.668Z,13.80
2023-04-07T11:26:25.529Z,13.80
2023-04-07T11:28:54.446Z,14.10
2023-04-07T11:31:26.261Z,14.10
2023-04-07T11:33:59.152Z,14.10
2023-04-07T11:36:29.833Z,14.30
2023-04-07T11:38:57.709Z,14.40
2023-04-07T11:41:28.775Z,14.40
2023-04-07T11:44:26.568Z,14.70
2023-04-07T11:46:58.800Z,14.60
2023-04-07T11:49:30.043Z,14.80
2023-04-07T11:52:07.425Z,14.90
2023-04-07T11:54:47.699Z,15.20
2023-04-07T11:57:14.870Z,15.50
2023-04-07T11:59:42.317Z,15.40
2023-04-07T12:02:09.770Z,14.80
2023-04-07T12:04:40.161Z,14.80
2023-04-07T12:07:11.474Z,15.00
2023-04-07T12:09:38.882Z,15.20
2023-04-07T12:12:07.634Z,15.60
2023-04-07T12:14:35.516Z,15.50
2023-04-07T12:17:03.596Z,15.70
2023-04-07T12:19:35.834Z,15.80
2023-04-07T12:22:03.913Z,15.70
2023-04-07T12:24:32.275Z,16.40
2023-04-07T12:26:59.536Z,16.80
2023-04-07T12:29:26.408Z,16.30
2023-04-07T12:31:53.306Z,16.90
2023-04-07T12:34:20.622Z,17.30
2023-04-07T12:36:48.208Z,18.40
2023-04-07T12:39:16.595Z,18.90
2023-04-07T12:41:45.705Z,18.90
2023-04-07T12:44:12.552Z,19.50
2023-04-07T12:46:39.303Z,20.30
2023-04-07T12:49:06.523Z,19.80
2023-04-07T12:51:33.573Z,19.80
2023-04-07T12:54:03.533Z,18.90
2023-04-07T12:56:30.643Z,16.80
2023-04-07T12:58:57.890Z,16.20
2023-04-07T13:01:24.883Z,16.40
2023-04-07T13:03:52.115Z,17.80
2023-04-07T13:06:19.806Z,19.10
2023-04-07T13:08:46.539Z,19.20
2023-04-07T13:11:13.326Z,20.20
2023-04-07T13:13:40.349Z,21.00
2023-04-07T13:16:07.867Z,21.70
2023-04-07T13:18:34.600Z,21.30
2023-04-07T13:23:42.222Z,21.50
2023-04-07T13:26:10.423Z,22.10
2023-04-07T13:28:37.392Z,20.90
2023-04-07T13:31:04.540Z,22.50
2023-04-07T13:33:31.424Z,21.90
2023-04-07T13:35:58.247Z,22.20
2023-04-07T13:38:25.386Z,21.60
2023-04-07T13:40:52.092Z,21.00
2023-04-07T13:43:20.108Z,21.10
2023-04-07T13:45:47.035Z,20.80
2023-04-07T13:48:13.849Z,21.10
2023-04-07T13:50:40.913Z,21.50
2023-04-07T13:53:08.003Z,21.90
2023-04-07T13:55:34.766Z,22.30
2023-04-07T13:58:02.600Z,22.00
2023-04-07T14:00:29.978Z,21.90
2023-04-07T14:02:57.027Z,21.30
2023-04-07T14:05:24.449Z,21.80
2023-04-07T14:07:51.526Z,21.50
2023-04-07T14:10:18.676Z,22.10
2023-04-07T14:12:45.409Z,22.20
2023-04-07T14:15:12.272Z,21.60
2023-04-07T14:17:39.020Z,20.60
2023-04-07T14:20:06.520Z,20.60
2023-04-07T14:22:33.362Z,20.80
2023-04-07T14:25:00.529Z,19.50
2023-04-07T14:27:31.104Z,18.40
2023-04-07T14:29:59.584Z,18.50
2023-04-07T14:32:29.488Z,19.30
2023-04-07T14:34:59.487Z,19.40
2023-04-07T14:37:28.544Z,19.80
2023-04-07T14:40:02.096Z,18.30
2023-04-07T14:42:30.360Z,18.60
2023-04-07T14:45:03.216Z,18.80
2023-04-07T14:47:31.466Z,18.80
2023-04-07T14:49:58.768Z,18.10
2023-04-07T14:52:25.953Z,17.80
2023-04-07T14:54:52.851Z,16.60
2023-04-07T14:57:19.694Z,16.80
2023-04-07T14:59:47.634Z,17.70
2023-04-07T15:02:14.672Z,18.80
2023-04-07T15:04:41.594Z,19.40
2023-04-07T15:07:08.582Z,19.90
2023-04-07T15:09:35.677Z,19.80
2023-04-07T15:12:02.468Z,20.10
2023-04-07T15:14:29.817Z,19.10
2023-04-07T15:16:56.635Z,18.70
2023-04-07T15:19:23.526Z,18.40
2023-04-07T15:21:50.338Z,19.00
2023-04-07T15:24:17.124Z,19.30
2023-04-07T15:26:44.295Z,19.30
2023-04-07T15:29:11.140Z,18.60
2023-04-07T15:31:37.993Z,17.90
2023-04-07T15:34:05.328Z,17.00
2023-04-07T15:36:32.091Z,16.60
2023-04-07T15:39:04.236Z,16.10
2023-04-07T15:41:31.164Z,15.60
2023-04-07T15:44:00.009Z,15.30
2023-04-07T15:46:27.213Z,15.20
2023-04-07T15:48:53.982Z,15.30
2023-04-07T15:51:20.819Z,15.60
2023-04-07T15:53:48.405Z,15.50
2023-04-07T15:56:15.472Z,15.70
2023-04-07T15:58:42.206Z,15.90
2023-04-07T16:01:09.192Z,16.30
2023-04-07T16:03:36.490Z,16.10
2023-04-07T16:06:03.487Z,16.30
2023-04-07T16:08:30.441Z,16.40
2023-04-07T16:10:57.192Z,16.60
2023-04-07T16:13:23.948Z,16.80
2023-04-07T16:15:54.909Z,17.30
2023-04-07T16:18:21.816Z,17.40
2023-04-07T16:20:48.575Z,16.70
2023-04-07T16:23:15.333Z,16.50
2023-04-07T16:25:42.115Z,16.40
2023-04-07T16:28:08.866Z,16.00
2023-04-07T16:30:36.432Z,15.90
2023-04-07T16:33:05.252Z,15.60
2023-04-07T16:35:32.639Z,15.30
2023-04-07T16:38:04.281Z,15.10
2023-04-07T16:40:31.433Z,15.20
2023-04-07T16:42:58.256Z,15.00
2023-04-07T16:45:24.968Z,14.80
2023-04-07T16:47:52.094Z,14.30
2023-04-07T16:50:19.047Z,14.10
2023-04-07T16:52:47.684Z,13.60
2023-04-07T16:55:17.497Z,13.60
2023-04-07T16:57:44.317Z,13.70
2023-04-07T17:00:14.362Z,13.60
2023-04-07T17:02:41.395Z,13.40
2023-04-07T17:05:08.895Z,13.20
2023-04-07T17:07:36.229Z,12.70
2023-04-07T17:10:03.596Z,12.40
2023-04-07T17:12:30.571Z,11.90
2023-04-07T17:14:57.321Z,11.80
2023-04-07T17:17:24.155Z,11.60
2023-04-07T17:19:51.577Z,11.40
2023-04-07T17:22:18.831Z,11.30
2023-04-07T17:24:45.565Z,11.20
2023-04-07T17:27:12.324Z,11.10
2023-04-07T17:29:39.299Z,10.80
2023-04-07T17:32:07.741Z,10.70
2023-04-07T17:34:35.332Z,10.60
2023-04-07T17:37:02.557Z,10.50
2023-04-07T17:39:29.629Z,10.30
2023-04-07T17:41:56.398Z,9.80
2023-04-07T17:44:23.138Z,9.60
2023-04-07T17:46:49.991Z,9.40
2023-04-07T17:49:17.375Z,9.00
2023-04-07T17:51:44.235Z,8.80
2023-04-07T17:54:10.940Z,8.90
2023-04-07T17:56:38.249Z,8.90
2023-04-07T17:59:05.094Z,8.90
2023-04-07T18:01:32.228Z,8.80
2023-04-07T18:03:59.986Z,8.80
2023-04-07T18:06:28.479Z,8.70
2023-04-07T18:08:55.603Z,8.50
2023-04-07T18:11:22.854Z,8.10
2023-04-07T18:13:49.866Z,8.00
2023-04-07T18:16:21.410Z,7.90
2023-04-07T18:18:49.548Z,7.90
2023-04-07T18:21:16.499Z,7.90
2023-04-07T18:23:43.293Z,7.70
2023-04-07T18:26:10.331Z,7.00
2023-04-07T18:28:37.192Z,6.50
2023-04-07T18:31:06.957Z,6.20
2023-04-07T18:33:35.002Z,6.20
2023-04-07T18:36:07.645Z,6.20
2023-04-07T18:38:36.375Z,6.30
2023-04-07T18:41:03.698Z,6.30
2023-04-07T18:43:31.320Z,6.10
2023-04-07T18:45:58.543Z,6.10
2023-04-07T18:48:26.542Z,6.10
2023-04-07T18:50:57.273Z,6.10
2023-04-07T18:53:25.580Z,5.90
2023-04-07T18:55:52.585Z,5.40
2023-04-07T18:58:21.871Z,5.30
2023-04-07T19:00:50.153Z,5.20
2023-04-07T19:03:17.460Z,5.20
2023-04-07T19:05:47.655Z,5.10
2023-04-07T19:08:16.286Z,5.00
2023-04-07T19:10:43.836Z,4.80
2023-04-07T19:13:10.962Z,4.70
2023-04-07T19:15:39.212Z,4.70
2023-04-07T19:18:07.823Z,4.90
2023-04-07T19:20:34.590Z,4.90
2023-04-07T19:23:01.874Z,4.80
2023-04-07T19:25:30.680Z,4.80
2023-04-07T19:27:59.013Z,4.70
2023-04-07T19:30:25.958Z,4.60
2023-04-07T19:32:53.040Z,4.80
2023-04-07T19:35:21.005Z,4.60
2023-04-07T19:37:51.995Z,3.90
2023-04-07T19:40:18.988Z,3.70
2023-04-07T19:42:45.859Z,3.50
2023-04-07T19:45:12.756Z,3.80
2023-04-07T19:47:39.745Z,3.90
2023-04-07T19:50:07.921Z,4.00
2023-04-07T19:52:34.726Z,4.30
2023-04-07T19:55:03.718Z,4.40
2023-04-07T19:57:31.543Z,4.60
2023-04-07T19:59:58.497Z,4.70
2023-04-07T20:02:26.247Z,4.80
2023-04-07T20:04:53.612Z,4.80
2023-04-07T20:07:20.592Z,4.70
2023-04-07T20:09:47.492Z,4.60
2023-04-07T20:12:14.863Z,4.30
2023-04-07T20:14:41.771Z,4.20
2023-04-07T20:17:08.682Z,4.30
2023-04-07T20:19:35.890Z,4.30
2023-04-07T20:22:02.734Z,4.60
2023-04-07T20:24:30.789Z,4.70
2023-04-07T20:26:57.779Z,4.80
2023-04-07T20:29:24.584Z,4.70
2023-04-07T20:31:51.344Z,4.80
2023-04-07T20:34:18.098Z,4.80
2023-04-07T20:36:44.955Z,4.60
2023-04-07T20:39:11.814Z,4.60
2023-04-07T20:41:42.741Z,4.50
2023-04-07T20:44:09.504Z,4.60
2023-04-07T20:46:36.535Z,4.70
2023-04-07T20:49:05.223Z,4.80
2023-04-07T20:51:32.241Z,4.90
2023-04-07T20:53:58.955Z,5.10
2023-04-07T20:56:25.692Z,5.10
2023-04-07T20:58:52.553Z,5.10
2023-04-07T21:01:19.298Z,5.20
2023-04-07T21:03:46.268Z,5.20
2023-04-07T21:06:13.181Z,5.20
2023-04-07T21:08:39.958Z,5.10
2023-04-07T21:11:06.691Z,5.20
2023-04-07T21:13:33.556Z,5.10
2023-04-07T21:16:01.311Z,5.00
2023-04-07T21:18:28.784Z,5.10
2023-04-07T21:20:59.475Z,5.30
2023-04-07T21:23:26.317Z,5.30
2023-04-07T21:25:53.112Z,5.30
2023-04-07T21:28:19.844Z,5.30
2023-04-07T21:30:46.684Z,5.30
2023-04-07T21:33:14.143Z,5.40
2023-04-07T21:35:42.217Z,5.30
2023-04-07T21:38:09.057Z,5.30
2023-04-07T21:40:36.098Z,5.20
2023-04-07T21:43:03.465Z,5.10
2023-04-07T21:45:31.563Z,4.90
2023-04-07T21:47:58.361Z,4.80
2023-04-07T21:50:25.479Z,4.70
2023-04-07T21:52:52.892Z,4.60
2023-04-07T21:55:20.716Z,4.70
2023-04-07T21:57:48.336Z,4.80
2023-04-07T22:00:16.421Z,4.80
2023-04-07T22:02:43.919Z,5.00
2023-04-07T22:05:11.044Z,5.10
2023-04-07T22:07:37.828Z,5.20
2023-04-07T22:10:05.080Z,5.30
2023-04-07T22:12:31.897Z,5.10
2023-04-07T22:14:58.651Z,5.10
2023-04-07T22:17:25.680Z,5.20
2023-04-07T22:19:52.675Z,5.10
2023-04-07T22:22:19.487Z,5.10
2023-04-07T22:24:46.257Z,5.10
2023-04-07T22:27:13.020Z,5.10
2023-04-07T22:29:39.793Z,5.10
2023-04-07T22:32:06.757Z,5.20
2023-04-07T22:34:33.627Z,5.20
2023-04-07T22:37:00.542Z,5.20
2023-04-07T22:39:27.301Z,5.20
2023-04-07T22:41:54.463Z,5.10
2023-04-07T22:44:21.389Z,5.20
2023-04-07T22:46:48.232Z,5.20
2023-04-07T22:49:14.990Z,5.30
2023-04-07T22:51:41.797Z,5.30
2023-04-07T22:54:09.097Z,5.30
2023-04-07T22:56:36.075Z,5.30
2023-04-07T22:59:05.808Z,5.30
2023-04-07T23:01:33.257Z,5.30
2023-04-07T23:04:00.229Z,5.30
2023-04-07T23:06:28.574Z,5.20
2023-04-07T23:08:56.459Z,5.20
2023-04-07T23:11:23.632Z,5.10
2023-04-07T23:13:51.550Z,5.10
2023-04-07T23:16:18.472Z,5.10
2023-04-07T23:18:45.784Z,5.00
2023-04-07T23:21:13.118Z,5.00
2023-04-07T23:23:40.095Z,5.00
2023-04-07T23:26:07.258Z,5.10
2023-04-07T23:28:33.989Z,5.10
2023-04-07T23:31:02.037Z,4.90
2023-04-07T23:33:31.603Z,4.80
2023-04-07T23:35:58.850Z,4.80
2023-04-07T23:38:26.128Z,4.80
2023-04-07T23:40:53.480Z,4.70
2023-04-07T23:43:20.277Z,4.60
2023-04-07T23:45:47.374Z,4.50
2023-04-07T23:48:16.070Z,4.50
2023-04-07T23:50:42.853Z,4.40
2023-04-07T23:53:10.302Z,4.50
2023-04-07T23:55:37.057Z,4.60
2023-04-07T23:58:03.780Z,4.60
